Observations for QUIMPER PLUGUFF, France (LFRQ)

LFRQ 230530Z AUTO 24013KT 5000 BR VV/// 12/12 Q1022 TEMPO 0800 -DZ FG   
LFRQ 230500Z AUTO 24012KT 1000 R28/1200U BCFG VV/// 12/12 Q1021 
LFRQ 230430Z AUTO 24011KT 0800 R28/1000D FG VV/// 12/12 Q1021   
LFRQ 230400Z AUTO 24011KT 0800 R28/0900D FG VV/// 12/12 Q1022   
LFRQ 230330Z AUTO 24010KT 4300 -DZ BR OVC003 12/12 Q1022
LFRQ 230300Z AUTO 21006KT 3100 -RA BR OVC003 12/11 Q1022
LFRQ 230230Z AUTO 20006KT 160V220 3100 BR BKN002 OVC007 11/11 Q1022 
LFRQ 230200Z AUTO 19006KT 160V230 2600 -RADZ BR OVC003 11/11 Q1022  
LFRQ 230130Z AUTO 18008KT 2600 BR OVC003 11/10 Q1022
LFRQ 230100Z AUTO 18008KT 2600 BR OVC003 10/10 Q1022
LFRQ 230030Z AUTO 18006KT 9999 BKN005 OVC010 10/10 Q1023
LFRQ 230000Z AUTO 18006KT 9999 FEW008 BKN015 BKN058 10/09 Q1023 
LFRQ 222330Z AUTO 18005KT 9999 FEW003 BKN062 OVC072 09/09 Q1023 
LFRQ 222300Z AUTO 18004KT 4500 BR VV/// 09/09 Q1023 TEMPO 22015G25KT 2000 RADZ OVC002   
LFRQ 222230Z AUTO 18004KT 0900 R28/1100D FG VV/// 08/08 Q1024 TEMPO 22015G25KT 2000 RADZ OVC002 
LFRQ 222200Z AUTO VRB03KT 1400 R28/1700N BR VV/// 08/08 Q1024 BECMG 19013KT 5000 -RA OVC004 
LFRQ 222130Z AUTO 18002KT 1400 R28/1700N BR VV/// 08/08 Q1023 BECMG 19013KT 5000 -RA OVC004 
LFRQ 222100Z AUTO 20003KT 0900 R28/1100N FG VV/// 08/08 Q1024 BECMG 9999 -RA BKN010 OVC050  
LFRQ 222030Z AUTO 20003KT 4700 BR BKN010 OVC130 09/08 Q1024 BECMG 9999 -RA  
LFRQ 222000Z AUTO 21004KT 2400 BR BKN004 OVC008 08/08 Q1024 TEMPO BKN013 BECMG 9999 NSW 
LFRQ 221930Z AUTO 22002KT 4100 BR OVC011 08/07 Q1024 BECMG 9999 NSW 
LFRQ 221900Z AUTO 25003KT 5000 BR BKN013 OVC024 08/07 Q1024 NOSIG   
LFRQ 221830Z AUTO 24004KT 7000 SCT017 BKN023 BKN140 08/07 Q1024 TEMPO BKN013
LFRQ 221800Z AUTO 26004KT CAVOK 08/07 Q1023 TEMPO BKN013
LFRQ 221730Z AUTO 25004KT CAVOK 09/07 Q1023 TEMPO BKN013
LFRQ 221700Z AUTO 28005KT CAVOK 09/07 Q1023 NOSIG   
LFRQ 221630Z AUTO 29005KT CAVOK 10/07 Q1023 NOSIG   
LFRQ 221600Z AUTO 30009KT 9999 FEW016 11/08 Q1023 NOSIG 
LFRQ 221530Z AUTO 30010KT 9999 BKN017 BKN022 OVC027 11/08 Q1022 BECMG 24006KT   
LFRQ 221500Z AUTO 30012KT 9999 BKN022 OVC030 11/08 Q1022 NOSIG  
LFRQ 221430Z AUTO 30013KT 270V330 9999 BKN022 BKN028 BKN033 12/08 Q1022 NOSIG   
LFRQ 221400Z AUTO 30011KT 270V330 9999 SCT018 BKN023 BKN030 11/08 Q1021 NOSIG   
LFRQ 221330Z AUTO 29011KT 260V320 9999 FEW016 BKN024 OVC032 12/08 Q1021 NOSIG   
LFRQ 221300Z AUTO 31014KT 9999 BKN017 BKN023 OVC031 11/08 Q1021 NOSIG   
LFRQ 221230Z AUTO 32012KT 9999 SCT016 OVC025 11/08 Q1021 NOSIG  
LFRQ 221200Z AUTO 31017G27KT 9999 OVC018 11/08 Q1021 BECMG 30011KT  
LFRQ 221130Z AUTO 32016G26KT 9999 OVC016 11/08 Q1021 BECMG 30011KT  
LFRQ 221100Z AUTO 31018G29KT 9999 OVC016 11/09 Q1020 BECMG 31012KT  
LFRQ 221030Z AUTO 31016KT 9999 OVC016 11/08 Q1019 NOSIG